createdAt,value
2018-03-19T00:00:42.866Z,0.20
2018-03-19T00:03:10.997Z,0.20
2018-03-19T00:05:39.145Z,0.10
2018-03-19T00:08:07.397Z,0.10
2018-03-19T00:10:36.306Z,0.10
2018-03-19T00:13:04.663Z,0.10
2018-03-19T00:15:32.883Z,0.00
2018-03-19T00:18:01.027Z,0.10
2018-03-19T00:20:30.193Z,0.10
2018-03-19T00:22:58.362Z,0.10
2018-03-19T00:25:26.496Z,0.10
2018-03-19T00:27:54.834Z,0.10
2018-03-19T00:30:23.772Z,0.00
2018-03-19T00:32:52.118Z,0.00
2018-03-19T00:35:21.031Z,-0.10
2018-03-19T00:37:49.202Z,-0.10
2018-03-19T00:40:17.333Z,-0.20
2018-03-19T00:42:45.561Z,-0.20
2018-03-19T00:45:13.863Z,-0.20
2018-03-19T00:47:42.019Z,-0.30
2018-03-19T00:50:11.200Z,-0.40
2018-03-19T00:52:39.346Z,-0.40
2018-03-19T00:55:08.339Z,-0.40
2018-03-19T00:57:37.240Z,-0.40
2018-03-19T01:00:06.284Z,-0.50
2018-03-19T01:02:34.528Z,-0.50
2018-03-19T01:05:02.804Z,-0.50
2018-03-19T01:07:31.009Z,-0.40
2018-03-19T01:09:59.143Z,-0.50
2018-03-19T01:12:27.397Z,-0.50
2018-03-19T01:14:55.657Z,-0.50
2018-03-19T01:17:23.937Z,-0.50
2018-03-19T01:19:52.858Z,-0.60
2018-03-19T01:22:21.120Z,-0.60
2018-03-19T01:24:51.158Z,-0.70
2018-03-19T01:27:19.405Z,-0.70
2018-03-19T01:29:48.327Z,-0.70
2018-03-19T01:32:16.477Z,-0.70
2018-03-19T01:34:45.407Z,-0.80
2018-03-19T01:37:13.564Z,-0.80
2018-03-19T01:39:42.082Z,-0.70
2018-03-19T01:42:10.499Z,-0.70
2018-03-19T01:44:39.513Z,-0.70
2018-03-19T01:47:08.492Z,-0.60
2018-03-19T01:49:37.405Z,-0.60
2018-03-19T01:52:05.565Z,-0.60
2018-03-19T01:54:33.712Z,-0.60
2018-03-19T01:57:01.852Z,-0.60
2018-03-19T01:59:30.758Z,-0.60
2018-03-19T02:01:58.894Z,-0.60
2018-03-19T02:04:27.022Z,-0.60
2018-03-19T02:06:55.231Z,-0.60
2018-03-19T02:09:23.428Z,-0.50
2018-03-19T02:11:51.624Z,-0.50
2018-03-19T02:14:20.567Z,-0.50
2018-03-19T02:16:48.857Z,-0.50
2018-03-19T02:19:17.019Z,-0.50
2018-03-19T02:21:45.252Z,-0.50
2018-03-19T02:24:13.403Z,-0.50
2018-03-19T02:26:42.363Z,-0.60
2018-03-19T02:29:10.670Z,-0.60
2018-03-19T02:31:38.808Z,-0.50
2018-03-19T02:34:06.942Z,-0.50
2018-03-19T02:36:35.141Z,-0.50
2018-03-19T02:39:03.524Z,-0.50
2018-03-19T02:41:31.813Z,-0.50
2018-03-19T02:44:00.194Z,-0.40
2018-03-19T02:46:28.358Z,-0.40
2018-03-19T02:48:56.532Z,-0.40
2018-03-19T02:51:24.705Z,-0.40
2018-03-19T02:53:52.848Z,-0.40
2018-03-19T02:56:21.774Z,-0.40
2018-03-19T02:58:49.935Z,-0.40
2018-03-19T03:01:18.106Z,-0.40
2018-03-19T03:03:46.545Z,-0.40
2018-03-19T03:06:14.713Z,-0.40
2018-03-19T03:08:43.061Z,-0.40
2018-03-19T03:11:11.185Z,-0.40
2018-03-19T03:13:40.630Z,-0.40
2018-03-19T03:16:08.934Z,-0.40
2018-03-19T03:18:37.947Z,-0.40
2018-03-19T03:21:06.130Z,-0.40
2018-03-19T03:23:34.288Z,-0.40
2018-03-19T03:26:02.442Z,-0.40
2018-03-19T03:28:31.436Z,-0.40
2018-03-19T03:30:59.588Z,-0.40
2018-03-19T03:33:27.750Z,-0.50
2018-03-19T03:35:56.168Z,-0.50
2018-03-19T03:38:24.398Z,-0.50
2018-03-19T03:40:52.551Z,-0.50
2018-03-19T03:43:21.481Z,-0.60
2018-03-19T03:45:49.615Z,-0.60
2018-03-19T03:48:17.886Z,-0.60
2018-03-19T03:50:46.075Z,-0.60
2018-03-19T03:53:14.273Z,-0.60
2018-03-19T03:55:42.478Z,-0.70
2018-03-19T03:58:10.838Z,-0.80
2018-03-19T04:00:39.020Z,-0.80
2018-03-19T04:03:07.211Z,-0.80
2018-03-19T04:05:35.543Z,-0.80
2018-03-19T04:08:04.446Z,-0.80
2018-03-19T04:10:32.633Z,-0.90
2018-03-19T04:13:00.789Z,-0.80
2018-03-19T04:15:29.687Z,-0.90
2018-03-19T04:17:57.820Z,-0.90
2018-03-19T04:20:26.297Z,-0.80
2018-03-19T04:22:54.410Z,-0.90
2018-03-19T04:25:22.533Z,-0.80
2018-03-19T04:27:50.726Z,-0.80
2018-03-19T04:30:19.630Z,-0.80
2018-03-19T04:32:48.546Z,-0.80
2018-03-19T04:35:16.698Z,-0.80
2018-03-19T04:37:45.710Z,-0.80
2018-03-19T04:40:13.895Z,-0.80
2018-03-19T04:42:42.177Z,-0.80
2018-03-19T04:45:10.321Z,-0.80
2018-03-19T04:47:39.288Z,-0.80
2018-03-19T04:50:07.635Z,-0.80
2018-03-19T04:52:35.848Z,-0.80
2018-03-19T04:55:04.756Z,-0.80
2018-03-19T04:57:33.782Z,-0.70
2018-03-19T05:00:01.928Z,-0.70
2018-03-19T05:02:30.849Z,-0.80
2018-03-19T05:04:59.117Z,-0.80
2018-03-19T05:07:27.388Z,-0.70
2018-03-19T05:09:55.541Z,-0.70
2018-03-19T05:12:23.811Z,-0.70
2018-03-19T05:14:52.726Z,-0.80
2018-03-19T05:17:20.901Z,-0.80
2018-03-19T05:19:49.065Z,-0.80
2018-03-19T05:22:17.287Z,-0.80
2018-03-19T05:24:45.433Z,-0.80
2018-03-19T05:27:13.602Z,-0.80
2018-03-19T05:29:43.497Z,-0.80
2018-03-19T05:32:11.867Z,-0.80
2018-03-19T05:34:40.880Z,-0.80
2018-03-19T05:37:09.024Z,-0.90
2018-03-19T05:39:38.138Z,-0.90
2018-03-19T05:42:06.393Z,-0.90
2018-03-19T05:44:35.295Z,-1.00
2018-03-19T05:47:04.204Z,-1.00
2018-03-19T05:49:32.376Z,-1.00
2018-03-19T05:52:00.528Z,-1.00
2018-03-19T05:54:29.447Z,-1.00
2018-03-19T05:56:57.724Z,-1.00
2018-03-19T05:59:26.069Z,-0.90
2018-03-19T06:01:55.268Z,-0.90
2018-03-19T06:04:24.538Z,-0.90
2018-03-19T06:06:52.706Z,-0.90
2018-03-19T06:09:20.867Z,-0.90
2018-03-19T06:11:49.088Z,-0.90
2018-03-19T06:14:18.018Z,-0.90
2018-03-19T06:16:46.654Z,-0.90
2018-03-19T06:19:14.909Z,-0.80
2018-03-19T06:21:43.047Z,-0.80
2018-03-19T06:24:11.339Z,-0.70
2018-03-19T06:26:43.499Z,-0.70
2018-03-19T06:29:11.638Z,-0.70
2018-03-19T06:31:40.587Z,-0.60
2018-03-19T06:34:08.718Z,-0.60
2018-03-19T06:36:36.864Z,-0.60
2018-03-19T06:39:05.105Z,-0.60
2018-03-19T06:41:34.167Z,-0.50
2018-03-19T06:44:02.334Z,-0.50
2018-03-19T06:46:30.549Z,-0.50
2018-03-19T06:48:59.599Z,-0.50
2018-03-19T06:51:27.762Z,-0.50
2018-03-19T06:53:56.576Z,-0.40
2018-03-19T06:56:24.831Z,-0.40
2018-03-19T06:58:53.098Z,-0.30
2018-03-19T07:01:22.047Z,-0.20
2018-03-19T07:03:50.208Z,-0.20
2018-03-19T07:06:18.385Z,-0.20
2018-03-19T07:08:46.534Z,-0.20
2018-03-19T07:11:14.703Z,-0.20
2018-03-19T07:13:42.932Z,-0.10
2018-03-19T07:16:11.876Z,0.00
2018-03-19T07:18:40.044Z,-0.10
2018-03-19T07:21:08.301Z,0.00
2018-03-19T07:23:37.223Z,0.10
2018-03-19T07:26:05.482Z,0.10
2018-03-19T07:28:33.644Z,0.10
2018-03-19T07:31:02.595Z,0.10
2018-03-19T07:33:30.852Z,0.10
2018-03-19T07:35:59.010Z,0.10
2018-03-19T07:38:27.204Z,0.20
2018-03-19T07:40:55.381Z,0.20
2018-03-19T07:43:23.548Z,0.30
2018-03-19T07:45:51.716Z,0.50
2018-03-19T07:48:20.439Z,0.60
2018-03-19T07:50:48.642Z,0.60
2018-03-19T07:53:17.643Z,0.70
2018-03-19T07:55:45.956Z,0.70
2018-03-19T07:58:14.135Z,0.70
2018-03-19T08:00:42.276Z,0.80
2018-03-19T08:03:10.414Z,0.80
2018-03-19T08:05:38.790Z,0.90
2018-03-19T08:08:06.990Z,0.90
2018-03-19T08:10:35.896Z,0.80
2018-03-19T08:13:04.035Z,0.80
2018-03-19T08:15:32.263Z,0.70
2018-03-19T08:18:00.507Z,0.80
2018-03-19T08:20:28.680Z,0.90
2018-03-19T08:22:57.707Z,1.10
2018-03-19T08:25:25.926Z,1.10
2018-03-19T08:27:54.862Z,1.10
2018-03-19T08:30:23.619Z,1.10
2018-03-19T08:32:52.557Z,1.30
2018-03-19T08:35:21.713Z,1.40
2018-03-19T08:37:50.610Z,1.40
2018-03-19T08:40:18.781Z,1.40
2018-03-19T08:42:47.896Z,1.50
2018-03-19T08:45:16.066Z,1.50
2018-03-19T08:47:45.305Z,1.70
2018-03-19T08:50:14.292Z,1.70
2018-03-19T08:52:42.667Z,1.90
2018-03-19T08:55:10.912Z,2.00
2018-03-19T08:57:39.079Z,2.00
2018-03-19T09:00:07.286Z,2.10
2018-03-19T09:02:35.432Z,2.10
2018-03-19T09:05:04.434Z,2.00
2018-03-19T09:07:32.680Z,1.90
2018-03-19T09:10:01.595Z,2.00
2018-03-19T09:12:29.745Z,2.00
2018-03-19T09:14:58.683Z,2.10
2018-03-19T09:17:27.037Z,2.10
2018-03-19T09:19:55.197Z,2.00
2018-03-19T09:22:23.389Z,2.10
2018-03-19T09:24:51.540Z,2.10
2018-03-19T09:27:20.579Z,2.30
2018-03-19T09:29:48.767Z,2.30
2018-03-19T09:32:17.014Z,2.40
2018-03-19T09:34:45.182Z,2.40
2018-03-19T09:37:13.388Z,2.40
2018-03-19T09:39:41.784Z,2.30
2018-03-19T09:42:09.979Z,2.20
2018-03-19T09:44:38.295Z,2.30
2018-03-19T09:47:06.536Z,2.30
2018-03-19T09:49:35.494Z,2.30
2018-03-19T09:52:03.669Z,2.40
2018-03-19T09:54:31.817Z,2.40
2018-03-19T09:56:59.966Z,2.40
2018-03-19T09:59:28.218Z,2.40
2018-03-19T10:01:56.680Z,2.30
2018-03-19T10:04:24.828Z,2.50
2018-03-19T10:06:52.996Z,2.60
2018-03-19T10:09:21.133Z,2.70
2018-03-19T10:11:49.456Z,2.80
2018-03-19T10:14:18.638Z,2.90
2018-03-19T10:16:46.874Z,2.80
2018-03-19T10:19:15.447Z,3.00
2018-03-19T10:21:44.390Z,3.20
2018-03-19T10:24:12.690Z,3.20
2018-03-19T10:26:40.888Z,3.00
2018-03-19T10:29:09.919Z,3.10
2018-03-19T10:31:38.978Z,3.20
2018-03-19T10:34:07.130Z,3.20
2018-03-19T10:36:35.426Z,3.30
2018-03-19T10:39:04.192Z,3.10
2018-03-19T10:41:33.934Z,3.30
2018-03-19T10:44:02.885Z,3.30
2018-03-19T10:46:31.047Z,3.30
2018-03-19T10:48:59.430Z,3.50
2018-03-19T10:51:27.593Z,3.60
2018-03-19T10:53:56.666Z,3.70
2018-03-19T10:56:24.815Z,3.60
2018-03-19T10:58:54.125Z,3.50
2018-03-19T11:01:42.773Z,3.70
2018-03-19T11:04:14.528Z,3.90
2018-03-19T11:07:00.116Z,4.00
2018-03-19T11:09:29.918Z,4.00
2018-03-19T11:11:58.959Z,3.90
2018-03-19T11:14:27.939Z,3.80
2018-03-19T11:16:56.096Z,3.80
2018-03-19T11:19:24.363Z,3.70
2018-03-19T11:21:53.296Z,3.80
2018-03-19T11:24:21.468Z,3.80
2018-03-19T11:26:50.240Z,4.10
2018-03-19T11:29:18.535Z,4.30
2018-03-19T11:31:46.694Z,4.50
2018-03-19T11:34:14.868Z,4.70
2018-03-19T11:36:43.748Z,4.80
2018-03-19T11:39:11.932Z,4.70
2018-03-19T11:41:40.080Z,4.80
2018-03-19T11:44:08.993Z,4.90
2018-03-19T11:46:37.166Z,4.90
2018-03-19T11:49:05.424Z,4.90
2018-03-19T11:51:33.677Z,4.70
2018-03-19T11:54:02.604Z,4.50
2018-03-19T11:56:30.788Z,4.50
2018-03-19T11:58:58.936Z,4.50
2018-03-19T12:01:27.206Z,4.40
2018-03-19T12:03:56.256Z,4.40
2018-03-19T12:06:24.512Z,4.30
2018-03-19T12:08:52.681Z,4.50
2018-03-19T12:11:20.988Z,4.60
2018-03-19T12:13:49.229Z,4.80
2018-03-19T12:16:17.405Z,4.80
2018-03-19T12:18:45.811Z,4.80
2018-03-19T12:21:14.024Z,4.90
2018-03-19T12:23:42.143Z,5.00
2018-03-19T12:26:10.417Z,5.00
2018-03-19T12:28:39.166Z,5.00
2018-03-19T12:31:08.093Z,5.00
2018-03-19T12:33:36.246Z,5.00
2018-03-19T12:36:04.529Z,4.80
2018-03-19T12:38:32.860Z,4.70
2018-03-19T12:41:01.021Z,4.60
2018-03-19T12:43:29.266Z,4.50
2018-03-19T12:45:57.581Z,4.30
2018-03-19T12:48:25.703Z,4.10
2018-03-19T12:50:53.933Z,3.90
2018-03-19T12:53:22.099Z,3.70
2018-03-19T12:55:51.038Z,3.60
2018-03-19T12:58:19.197Z,3.60
2018-03-19T13:00:48.148Z,3.70
2018-03-19T13:03:16.297Z,3.70
2018-03-19T13:05:44.443Z,3.70
2018-03-19T13:08:13.358Z,3.80
2018-03-19T13:10:41.517Z,3.80
2018-03-19T13:13:09.719Z,3.80
2018-03-19T13:15:37.896Z,3.90
2018-03-19T13:18:06.359Z,3.90
2018-03-19T13:20:35.803Z,4.10
2018-03-19T13:23:04.138Z,4.10
2018-03-19T13:25:33.351Z,4.30
2018-03-19T13:28:01.770Z,4.20
2018-03-19T13:30:30.864Z,4.30
2018-03-19T13:32:59.130Z,4.30
2018-03-19T13:35:27.409Z,4.30
2018-03-19T13:37:55.583Z,4.30
2018-03-19T13:40:23.815Z,4.30
2018-03-19T13:42:51.960Z,4.20
2018-03-19T13:45:20.894Z,4.40
2018-03-19T13:47:49.038Z,4.30
2018-03-19T13:50:17.188Z,4.40
2018-03-19T13:52:47.197Z,4.40
2018-03-19T13:55:15.356Z,4.40
2018-03-19T13:57:45.231Z,4.60
2018-03-19T14:00:13.616Z,4.50
2018-03-19T14:02:41.913Z,4.60
2018-03-19T14:05:10.116Z,4.70
2018-03-19T14:07:38.322Z,4.70
2018-03-19T14:10:06.563Z,4.60
2018-03-19T14:12:34.800Z,4.40
2018-03-19T14:15:03.207Z,4.30
2018-03-19T14:17:31.542Z,4.50
2018-03-19T14:19:59.726Z,4.60
2018-03-19T14:22:27.926Z,4.70
2018-03-19T14:24:56.154Z,4.70
2018-03-19T14:27:24.421Z,4.80
2018-03-19T14:29:54.220Z,4.90
2018-03-19T14:32:23.303Z,4.80
2018-03-19T14:34:52.227Z,4.60
2018-03-19T14:37:20.552Z,4.60
2018-03-19T14:39:48.710Z,4.70
2018-03-19T14:42:16.867Z,4.70
2018-03-19T14:44:45.052Z,4.70
2018-03-19T14:47:13.342Z,4.70
2018-03-19T14:49:41.541Z,4.60
2018-03-19T14:52:09.803Z,4.60
2018-03-19T14:54:38.069Z,4.50
2018-03-19T14:57:07.227Z,4.50
2018-03-19T14:59:35.419Z,4.50
2018-03-19T15:02:04.390Z,4.40
2018-03-19T15:04:32.601Z,4.40
2018-03-19T15:07:00.760Z,4.50
2018-03-19T15:09:28.912Z,4.50
2018-03-19T15:11:57.191Z,4.50
2018-03-19T15:14:25.838Z,4.50
2018-03-19T15:16:54.340Z,4.60
2018-03-19T15:19:23.437Z,4.70
2018-03-19T15:21:51.628Z,4.70
2018-03-19T15:24:20.035Z,4.70
2018-03-19T15:26:48.183Z,4.80
2018-03-19T15:29:16.364Z,4.80
2018-03-19T15:31:44.594Z,4.70
2018-03-19T15:34:13.536Z,4.70
2018-03-19T15:36:41.704Z,4.70
2018-03-19T15:39:09.882Z,4.70
2018-03-19T15:41:38.052Z,4.80
2018-03-19T15:44:06.238Z,4.80
2018-03-19T15:46:34.389Z,4.70
2018-03-19T15:49:02.642Z,4.70
2018-03-19T15:51:31.746Z,4.80
2018-03-19T15:54:00.765Z,4.80
2018-03-19T15:56:28.953Z,4.80
2018-03-19T15:58:57.393Z,4.90
2018-03-19T16:01:26.895Z,5.20
2018-03-19T16:03:55.049Z,5.20
2018-03-19T16:06:23.216Z,5.40
2018-03-19T16:08:51.501Z,5.60
2018-03-19T16:11:19.718Z,5.70
2018-03-19T16:13:47.974Z,5.70
2018-03-19T16:16:16.235Z,5.80
2018-03-19T16:18:45.310Z,5.90
2018-03-19T16:21:13.669Z,5.90
2018-03-19T16:23:41.840Z,5.90
2018-03-19T16:26:09.990Z,5.90
2018-03-19T16:28:38.167Z,5.90
2018-03-19T16:31:06.458Z,5.90
2018-03-19T16:33:35.419Z,5.80
2018-03-19T16:36:03.566Z,5.80
2018-03-19T16:38:31.703Z,5.80
2018-03-19T16:40:59.844Z,5.90
2018-03-19T16:43:28.003Z,5.90
2018-03-19T16:45:57.000Z,5.80
2018-03-19T16:48:26.025Z,5.80
2018-03-19T16:50:55.500Z,6.00
2018-03-19T16:53:24.748Z,6.10
2018-03-19T16:55:53.026Z,6.10
2018-03-19T16:58:21.190Z,6.20
2018-03-19T17:00:49.365Z,6.30
2018-03-19T17:03:17.794Z,6.20
2018-03-19T17:05:46.779Z,6.30
2018-03-19T17:08:15.086Z,6.20
2018-03-19T17:10:43.348Z,6.10
2018-03-19T17:13:12.300Z,5.70
2018-03-19T17:15:40.609Z,5.70
2018-03-19T17:18:09.544Z,4.80
2018-03-19T17:20:37.713Z,4.80
2018-03-19T17:23:05.942Z,4.50
2018-03-19T17:25:34.997Z,4.00
2018-03-19T17:28:04.699Z,3.80
2018-03-19T17:30:32.858Z,3.80
2018-03-19T17:33:01.193Z,3.60
2018-03-19T17:35:29.415Z,3.50
2018-03-19T17:37:57.659Z,3.30
2018-03-19T17:40:26.597Z,3.10
2018-03-19T17:42:55.057Z,3.10
2018-03-19T17:45:23.832Z,3.00
2018-03-19T17:47:51.988Z,3.00
2018-03-19T17:50:20.942Z,2.90
2018-03-19T17:52:49.946Z,2.80
2018-03-19T17:55:19.746Z,2.70
2018-03-19T17:57:47.910Z,2.70
2018-03-19T18:00:16.043Z,2.70
2018-03-19T18:02:44.203Z,2.60
2018-03-19T18:05:13.257Z,2.40
2018-03-19T18:07:41.386Z,2.40
2018-03-19T18:10:09.588Z,2.30
2018-03-19T18:12:37.765Z,2.30
2018-03-19T18:15:05.938Z,2.20
2018-03-19T18:17:35.398Z,2.10
2018-03-19T18:20:04.319Z,2.00
2018-03-19T18:22:32.470Z,2.00
2018-03-19T18:25:01.524Z,1.90
2018-03-19T18:27:30.754Z,1.90
2018-03-19T18:29:59.691Z,1.90
2018-03-19T18:32:27.830Z,1.80
2018-03-19T18:34:56.123Z,1.80
2018-03-19T18:37:24.311Z,1.80
2018-03-19T18:39:52.494Z,1.70
2018-03-19T18:42:20.674Z,1.70
2018-03-19T18:44:49.724Z,1.60
2018-03-19T18:47:18.750Z,1.60
2018-03-19T18:49:47.011Z,1.60
2018-03-19T18:52:15.170Z,1.60
2018-03-19T18:54:43.502Z,1.50
2018-03-19T18:57:11.674Z,1.50
2018-03-19T18:59:39.948Z,1.50
2018-03-19T19:02:08.112Z,1.40
2018-03-19T19:04:36.332Z,1.40
2018-03-19T19:07:04.565Z,1.40
2018-03-19T19:09:32.941Z,1.30
2018-03-19T19:12:01.944Z,1.30
2018-03-19T19:14:30.322Z,1.30
2018-03-19T19:16:58.576Z,1.20
2018-03-19T19:19:26.769Z,1.20
2018-03-19T19:21:55.085Z,1.20
2018-03-19T19:24:23.973Z,1.10
2018-03-19T19:26:53.086Z,1.10
2018-03-19T19:29:21.282Z,1.10
2018-03-19T19:31:49.523Z,1.10
2018-03-19T19:34:18.532Z,1.00
2018-03-19T19:36:46.752Z,1.00
2018-03-19T19:39:15.823Z,0.90
2018-03-19T19:41:44.751Z,0.90
2018-03-19T19:44:13.868Z,0.80
2018-03-19T19:46:42.131Z,0.80
2018-03-19T19:49:11.888Z,0.70
2018-03-19T19:51:40.093Z,0.70
2018-03-19T19:54:09.505Z,0.70
2018-03-19T19:56:37.895Z,0.70
2018-03-19T19:59:06.125Z,0.70
2018-03-19T20:01:34.398Z,0.70
2018-03-19T20:04:02.665Z,0.70
2018-03-19T20:06:30.909Z,0.70
2018-03-19T20:08:59.655Z,0.70
2018-03-19T20:11:27.983Z,0.70
2018-03-19T20:13:56.889Z,0.60
2018-03-19T20:16:25.063Z,0.60
2018-03-19T20:18:53.352Z,0.50
2018-03-19T20:21:21.701Z,0.60
2018-03-19T20:23:49.908Z,0.50
2018-03-19T20:26:18.969Z,0.50
2018-03-19T20:28:47.861Z,0.50
2018-03-19T20:31:16.966Z,0.40
2018-03-19T20:33:45.933Z,0.40
2018-03-19T20:36:14.327Z,0.30
2018-03-19T20:38:42.923Z,0.30
2018-03-19T20:41:11.400Z,0.20
2018-03-19T20:43:40.314Z,0.20
2018-03-19T20:46:08.573Z,0.10
2018-03-19T20:48:36.879Z,0.10
2018-03-19T20:51:05.038Z,0.10
2018-03-19T20:53:33.388Z,0.10
2018-03-19T20:56:01.687Z,0.10
2018-03-19T20:58:29.946Z,0.10
2018-03-19T21:00:58.872Z,0.00
2018-03-19T21:03:27.246Z,0.00
2018-03-19T21:05:55.407Z,0.00
2018-03-19T21:08:23.637Z,-0.10
2018-03-19T21:10:52.642Z,-0.30
2018-03-19T21:13:20.824Z,-0.30
2018-03-19T21:15:49.730Z,-0.20
2018-03-19T21:18:18.670Z,-0.10
2018-03-19T21:20:46.813Z,-0.20
2018-03-19T21:23:15.042Z,-0.10
2018-03-19T21:25:43.376Z,-0.20
2018-03-19T21:28:11.578Z,-0.20
2018-03-19T21:30:39.847Z,-0.20
2018-03-19T21:33:08.003Z,-0.20
2018-03-19T21:35:36.180Z,-0.20
2018-03-19T21:38:04.348Z,-0.30
2018-03-19T21:40:32.774Z,-0.30
2018-03-19T21:43:00.917Z,-0.30
2018-03-19T21:45:29.132Z,-0.30
2018-03-19T21:47:57.717Z,-0.30
2018-03-19T21:50:25.920Z,-0.40
2018-03-19T21:52:54.092Z,-0.40
2018-03-19T21:55:22.280Z,-0.50
2018-03-19T21:57:50.433Z,-0.50
2018-03-19T22:00:18.598Z,-0.60
2018-03-19T22:02:47.060Z,-0.70
2018-03-19T22:05:15.189Z,-0.70
2018-03-19T22:07:43.344Z,-0.70
2018-03-19T22:10:12.216Z,-0.80
2018-03-19T22:12:40.522Z,-0.80
2018-03-19T22:15:08.771Z,-0.90
2018-03-19T22:17:37.068Z,-0.90
2018-03-19T22:20:05.261Z,-0.90
2018-03-19T22:22:33.501Z,-1.00
2018-03-19T22:25:01.663Z,-1.00
2018-03-19T22:27:29.935Z,-1.00
2018-03-19T22:29:58.846Z,-1.20
2018-03-19T22:32:27.263Z,-1.20
2018-03-19T22:34:55.602Z,-1.20
2018-03-19T22:37:24.204Z,-1.10
2018-03-19T22:39:53.367Z,-1.10
2018-03-19T22:42:21.579Z,-1.10
2018-03-19T22:44:49.926Z,-1.20
2018-03-19T22:47:18.302Z,-1.20
2018-03-19T22:49:46.611Z,-1.20
2018-03-19T22:52:14.785Z,-1.20
2018-03-19T22:54:43.012Z,-1.20
2018-03-19T22:57:12.060Z,-1.30
2018-03-19T22:59:40.454Z,-1.30
2018-03-19T23:02:09.584Z,-1.30
2018-03-19T23:04:50.297Z,-1.30
2018-03-19T23:07:18.462Z,-1.40
2018-03-19T23:09:46.702Z,-1.40
2018-03-19T23:12:15.645Z,-1.40
2018-03-19T23:14:44.141Z,-1.40
2018-03-19T23:17:12.333Z,-1.40
2018-03-19T23:19:40.525Z,-1.40
2018-03-19T23:22:08.922Z,-1.40
2018-03-19T23:24:37.092Z,-1.50
2018-03-19T23:27:05.268Z,-1.50
2018-03-19T23:29:33.545Z,-1.50
2018-03-19T23:32:01.818Z,-1.60
2018-03-19T23:34:30.168Z,-1.60
2018-03-19T23:36:58.394Z,-1.60
2018-03-19T23:39:26.737Z,-1.70
2018-03-19T23:41:55.300Z,-1.80
2018-03-19T23:44:23.631Z,-1.90
2018-03-19T23:46:51.766Z,-1.90
2018-03-19T23:49:20.694Z,-1.90
2018-03-19T23:51:48.872Z,-1.90
2018-03-19T23:54:28.961Z,-1.90
2018-03-19T23:56:58.570Z,-1.90
2018-03-19T23:59:26.721Z,-1.90
